METAR Data
IDs: Format: Raw Decoded Include TAF

Data at: 0112 UTC 25 Mar 2019

KEST 250108Z AUTO 34011KT 10SM BKN024 BKN028 OVC042 07/04 A3015 RMK AO2 T00670044
KEST 250052Z AUTO 36006KT 10SM FEW024 OVC042 06/04 A3014 RMK AO2 SLP218 T00610044
KEST 242352Z AUTO 36007KT 10SM OVC036 07/05 A3013 RMK AO2 SLP211 T00670050 10117 20056 51018
KEST 242252Z AUTO 01009KT 10SM SCT035 OVC043 07/05 A3011 RMK AO2 SLP205 T00720050
KEST 242207Z AUTO 01014KT 10SM BKN030 OVC045 08/05 A3010 RMK AO2 T00780050
KEST 242152Z AUTO 01013KT 10SM BKN027 OVC033 08/05 A3010 RMK AO2 SLP199 T00830050
KEST 242132Z AUTO 01015KT 10SM SCT023 BKN029 OVC065 09/05 A3009 RMK AO2 T00890050
KEST 242052Z AUTO 03013KT 10SM FEW025 11/05 A3007 RMK AO2 SLP190 T01110050 53001
KEST 241952Z AUTO 04012KT 10SM OVC050 09/04 A3006 RMK AO2 SLP188 T00940044
KEST 241852Z AUTO 05012KT 10SM OVC041 08/04 A3007 RMK AO2 SLP190 T00780044
KEST 241752Z AUTO 04012KT 10SM OVC040 06/04 A3007 RMK AO2 SLP190 T00560039 10061 20028 50006
KEST 241736Z AUTO 04013KT 10SM SCT026 OVC040 06/04 A3007 RMK AO2 T00610039
KEST 241659Z AUTO 03012KT 10SM FEW008 OVC028 05/03 A3007 RMK AO2 T00500033
KEST 241652Z AUTO 04012KT 10SM FEW008 OVC030 05/03 A3007 RMK AO2 SLP191 T00500033
KEST 241612Z AUTO 03011KT 10SM FEW007 OVC032 05/03 A3007 RMK AO2 T00500033
KEST 241552Z AUTO 04009KT 10SM OVC033 05/03 A3006 RMK AO2 SLP187 T00500033
KEST 241452Z AUTO 04009KT 10SM OVC044 05/03 A3005 RMK AO2 SLP184 T00500033 50008
KEST 241352Z AUTO 04005KT 7SM OVC044 03/03 A3005 RMK AO2 SLP185 T00330028
KEST 241252Z AUTO 02006KT 7SM OVC045 03/02 A3003 RMK AO2 SLP179 T00280022
KEST 241216Z AUTO 01005KT 7SM SCT009 OVC044 03/02 A3003 RMK AO2 T00280022
KEST 241152Z AUTO 06004KT 7SM OVC009 03/03 A3002 RMK AO2 SLP175 T00330028 10039 20033 56004
KEST 241052Z AUTO 04006KT 5SM BR FEW003 OVC007 03/03 A3002 RMK AO2 SLP174 T00330028
KEST 241045Z AUTO 05006KT 4SM BR FEW003 OVC007 03/03 A3002 RMK AO2 T00330028
KEST 240952Z AUTO 05004KT 4SM BR OVC003 03/03 A3002 RMK AO2 SLP174 T00330033
KEST 240918Z AUTO 03006KT 3SM BR OVC004 03/03 A3003 RMK AO2 T00330028
KEST 240908Z AUTO 03004KT 2 1/2SM BR OVC005 03/03 A3003 RMK AO2 CIG 004V007 T00330028
KEST 240852Z AUTO 05004KT 3SM BR BKN006 OVC030 03/03 A3003 RMK AO2 SLP178 T00330028 58006
KEST 240845Z AUTO 06004KT 4SM BR BKN006 OVC030 03/03 A3004 RMK AO2 T00330028
KEST 240836Z AUTO 07004KT 6SM BR SCT006 OVC032 03/03 A3004 RMK AO2 T00330028
KEST 240818Z AUTO 05004KT 10SM FEW024 OVC032 03/03 A3004 RMK AO2 T00330028
KEST 240752Z AUTO 04005KT 10SM SCT023 BKN028 OVC042 04/03 A3005 RMK AO2 SLP184 T00390028
KEST 240652Z AUTO 08004KT 10SM OVC040 04/03 A3005 RMK AO2 SLP185 T00390028
KEST 240552Z AUTO 09005KT 10SM SCT065 BKN080 04/02 A3006 RMK AO2 SLP187 T00390022 10072 20039 401001022 58005
KEST 240452Z AUTO 11004KT 10SM OVC080 04/03 A3007 RMK AO2 SLP191 T00440033
KEST 240352Z AUTO 11007KT 10SM OVC070 06/03 A3007 RMK AO2 SLP192 T00560033
KEST 240252Z AUTO 12007KT 10SM OVC075 06/03 A3008 RMK AO2 SLP196 T00560033 55002
KEST 240152Z AUTO 11007KT 10SM FEW055 OVC080 06/04 A3008 RMK AO2 SLP195 T00610039
KEST 240052Z AUTO 11007KT 10SM BKN060 OVC075 07/04 A3008 RMK AO2 SLP196 T00720039
KEST 232352Z AUTO 10007KT 10SM OVC060 07/04 A3008 RMK AO2 RAB11E24 SLP197 P0000 60000 T00720044 10100 20072 58006
KEST 232252Z AUTO 14008KT 10SM OVC100 09/04 A3009 RMK AO2 SLP202 T00890044
KEST 232152Z AUTO 14010KT 10SM BKN100 10/04 A3010 RMK AO2 SLP204 T01000044
KEST 232052Z AUTO 13008KT 10SM CLR 10/03 A3010 RMK AO2 SLP203 T01000028 58020
KEST 231952Z AUTO 16008KT 10SM CLR 09/02 A3012 RMK AO2 SLP210 T00940022
KEST 231852Z AUTO 18011KT 10SM CLR 09/02 A3016 RMK AO2 SLP222 T00890022
KEST 231752Z AUTO 18010KT 10SM CLR 08/02 A3016 RMK AO2 SLP224 T00780017 10078 21022 58010
KEST 231652Z AUTO 17011KT 10SM CLR 06/02 A3018 RMK AO2 SLP231 T00610017
KEST 231552Z AUTO 16009KT 10SM CLR 04/01 A3018 RMK AO2 SLP233 T00440006
KEST 231452Z AUTO 17009KT 10SM CLR 02/M01 A3019 RMK AO2 SLP237 T00221006 55002
KEST 231352Z AUTO 13007KT 10SM CLR 01/M01 A3019 RMK AO2 SLP236 T00061011